Time;durP1;ratioP1;P1;durP2;ratioP2;P2;SDS_P1;SDS_P2;PMS_P1;PMS_P2;Temp;Humidity;BMP_temperature;BMP_pressure;BME280_temperature;BME280_humidity;BME280_pressure;Samples;Min_cycle;Max_cycle;Signal;HPM_P1;HPM_P2
2024/04/03 00:01:40;;;;;;;2.63;1.23;;;;;;;8.72;78.76;98936.09;4975136;28;20062;-92
2024/04/03 00:04:06;;;;;;;3.05;1.25;;;;;;;9.11;80.41;98999.97;4975771;28;20050;-93
2024/04/03 00:06:32;;;;;;;5.88;1.83;;;;;;;9.41;81.57;99021.53;4976537;28;20042;-93
2024/04/03 00:08:58;;;;;;;3.58;1.13;;;;;;;8.89;82.33;98956.13;4977220;28;20521;-93
2024/04/03 00:11:25;;;;;;;2.78;1.00;;;;;;;9.07;81.58;98978.84;4975512;28;20520;-92
2024/04/03 00:13:54;;;;;;;6.75;1.35;;;;;;;9.06;85.15;99020.38;4975690;28;20502;-93
2024/04/03 00:16:20;;;;;;;2.30;1.27;;;;;;;8.27;82.74;98877.63;4977518;28;20046;-93
2024/04/03 00:18:46;;;;;;;4.18;1.25;;;;;;;8.97;82.34;98978.09;4977783;28;20065;-92
2024/04/03 00:21:12;;;;;;;3.55;1.30;;;;;;;9.28;84.54;99036.78;4976981;28;20038;-91
2024/04/03 00:23:38;;;;;;;3.20;1.27;;;;;;;8.47;85.96;98901.16;4977011;28;20093;-94
2024/04/03 00:26:04;;;;;;;4.22;1.60;;;;;;;8.20;87.17;98870.69;4977197;28;20038;-92
2024/04/03 00:28:30;;;;;;;3.17;1.05;;;;;;;9.06;89.32;99015.06;4977282;28;20039;-93
2024/04/03 00:31:00;;;;;;;3.20;1.50;;;;;;;8.90;89.19;98987.06;4977009;28;20129;-92
2024/04/03 00:33:26;;;;;;;1.98;1.20;;;;;;;9.03;89.09;99015.13;4977628;28;20054;-93
2024/04/03 00:35:56;;;;;;;4.30;1.38;;;;;;;8.94;90.67;99005.56;4976576;28;20042;-92
2024/04/03 00:38:23;;;;;;;3.63;1.40;;;;;;;8.89;93.06;99002.13;4977085;28;20034;-92
2024/04/03 00:40:56;;;;;;;4.32;1.40;;;;;;;8.42;95.85;98934.81;4976847;28;20057;-92
2024/04/03 00:43:22;;;;;;;3.55;1.50;;;;;;;8.63;96.71;98976.91;4974313;28;20038;-92
2024/04/03 00:45:49;;;;;;;2.72;1.38;;;;;;;8.64;100.00;98989.25;4976327;28;20039;-92
2024/04/03 00:48:16;;;;;;;3.88;1.80;;;;;;;8.00;100.00;98898.34;4981066;28;20050;-92
2024/04/03 00:50:44;;;;;;;6.65;1.92;;;;;;;8.72;99.09;98994.44;4977375;28;20046;-93
2024/04/03 00:53:10;;;;;;;4.10;1.70;;;;;;;8.60;100.00;98991.97;4977037;28;20042;-93
2024/04/03 00:55:39;;;;;;;4.00;1.65;;;;;;;8.59;100.00;98991.09;4976807;28;20117;-92
2024/04/03 00:58:05;;;;;;;3.35;1.60;;;;;;;8.55;100.00;98989.38;4976649;28;20050;-93
2024/04/03 01:00:33;;;;;;;4.20;1.20;;;;;;;8.58;100.00;98993.75;4975777;28;20133;-93
2024/04/03 01:02:59;;;;;;;2.20;1.35;;;;;;;8.40;100.00;98977.25;4976802;28;20046;-92
2024/04/03 01:05:27;;;;;;;3.20;1.38;;;;;;;8.56;100.00;98974.34;4976756;28;20053;-92
2024/04/03 01:07:53;;;;;;;2.63;1.52;;;;;;;8.58;100.00;98972.56;4972567;28;20158;-92
2024/04/03 01:10:19;;;;;;;2.55;1.30;;;;;;;8.58;100.00;98988.47;4971654;28;20558;-92
2024/04/03 01:12:46;;;;;;;4.10;1.38;;;;;;;8.60;100.00;98979.56;4976495;28;20051;-93
2024/04/03 01:15:12;;;;;;;4.13;1.38;;;;;;;8.48;100.00;98947.09;4976303;28;20061;-94
2024/04/03 01:17:38;;;;;;;4.97;1.60;;;;;;;8.26;100.00;98902.34;4976577;28;20046;-92
2024/04/03 01:20:06;;;;;;;3.20;1.52;;;;;;;8.48;100.00;98953.28;4977334;28;20051;-93
2024/04/03 01:22:34;;;;;;;2.85;1.40;;;;;;;8.26;100.00;98954.47;4976932;28;20073;-92
2024/04/03 01:25:02;;;;;;;5.32;1.63;;;;;;;8.20;100.00;98955.44;4976823;28;20042;-93
2024/04/03 01:27:28;;;;;;;3.25;1.40;;;;;;;8.17;100.00;98950.16;4980133;28;20137;-94
2024/04/03 01:29:54;;;;;;;5.25;1.77;;;;;;;8.18;100.00;98951.94;4976737;28;20137;-92
2024/04/03 01:32:23;;;;;;;3.03;1.48;;;;;;;8.18;100.00;98947.50;4975876;28;20133;-91
2024/04/03 01:34:49;;;;;;;4.25;1.55;;;;;;;7.84;100.00;98893.28;4975620;28;20137;-94
2024/04/03 01:37:17;;;;;;;2.95;1.25;;;;;;;8.09;100.00;98952.94;4976882;28;20043;-93
2024/04/03 01:39:43;;;;;;;2.72;1.63;;;;;;;7.48;100.00;98843.50;4977785;28;20050;-93
2024/04/03 01:42:11;;;;;;;2.70;1.30;;;;;;;7.60;100.00;98941.22;4976760;28;20062;-92
2024/04/03 01:44:37;;;;;;;3.92;1.38;;;;;;;7.52;100.00;98884.84;4976666;28;20039;-93
2024/04/03 01:47:03;;;;;;;3.45;1.33;;;;;;;7.66;100.00;98936.75;4976488;28;20125;-93
2024/04/03 01:49:29;;;;;;;3.50;1.10;;;;;;;7.69;100.00;98911.09;4978451;28;20046;-93
2024/04/03 01:51:55;;;;;;;2.60;1.38;;;;;;;7.98;100.00;98928.34;4980274;28;20093;-93
2024/04/03 01:54:21;;;;;;;4.68;1.02;;;;;;;7.80;100.00;98881.84;4980394;28;20042;-93
2024/04/03 01:56:47;;;;;;;3.13;1.13;;;;;;;8.20;100.00;98924.53;4980401;28;20042;-93
2024/04/03 01:59:15;;;;;;;4.93;1.38;;;;;;;8.06;100.00;98875.31;4996286;28;20069;-92
2024/04/03 02:01:41;;;;;;;3.28;1.00;;;;;;;8.21;100.00;98890.94;4979871;28;20049;-91
2024/04/03 02:04:07;;;;;;;2.25;1.17;;;;;;;8.32;100.00;98920.78;4980167;28;20118;-93
2024/04/03 02:06:33;;;;;;;3.75;1.40;;;;;;;8.39;100.00;98911.88;4980107;28;20099;-94
2024/04/03 02:08:59;;;;;;;2.40;1.00;;;;;;;8.44;100.00;98917.13;4979823;28;20050;-93
2024/04/03 02:11:25;;;;;;;2.95;0.98;;;;;;;8.35;100.00;98903.97;4979504;28;20514;-93
2024/04/03 02:13:51;;;;;;;3.35;1.20;;;;;;;8.29;100.00;98899.66;4980064;28;20055;-93
2024/04/03 02:16:18;;;;;;;4.28;1.25;;;;;;;8.35;100.00;98902.22;4980948;28;20471;-92
2024/04/03 02:18:44;;;;;;;1.77;0.90;;;;;;;7.67;100.00;98795.56;4979291;28;20137;-92
2024/04/03 02:21:10;;;;;;;4.93;1.67;;;;;;;8.10;100.00;98879.66;4978857;28;20137;-93
2024/04/03 02:23:36;;;;;;;3.38;1.20;;;;;;;7.93;100.00;98838.41;4979339;28;20039;-92
2024/04/03 02:26:02;;;;;;;4.32;1.65;;;;;;;7.67;100.00;98846.72;4979683;28;20042;-94
2024/04/03 02:28:28;;;;;;;2.15;1.10;;;;;;;7.98;100.00;98913.38;4979939;28;20076;-92
2024/04/03 02:30:59;;;;;;;1.85;1.02;;;;;;;8.18;100.00;98905.13;4979354;28;20046;-92
2024/04/03 02:33:27;;;;;;;2.97;0.80;;;;;;;8.26;100.00;98915.59;4980616;28;20145;-92
2024/04/03 02:35:53;;;;;;;2.78;1.25;;;;;;;8.32;100.00;98910.19;4979808;28;20053;-92
2024/04/03 02:38:20;;;;;;;2.22;1.25;;;;;;;7.91;100.00;98831.38;4979747;28;20453;-93
2024/04/03 02:40:46;;;;;;;2.47;0.95;;;;;;;8.42;100.00;98913.63;4979594;28;20069;-93
2024/04/03 02:43:12;;;;;;;1.15;0.80;;;;;;;8.35;100.00;98869.53;4979129;28;20487;-93
2024/04/03 02:45:38;;;;;;;2.70;1.08;;;;;;;8.02;100.00;98809.16;4978978;28;20581;-94
2024/04/03 02:48:04;;;;;;;1.27;0.63;;;;;;;7.48;100.00;98729.72;4989730;28;20050;-92
2024/04/03 02:50:32;;;;;;;2.58;0.73;;;;;;;8.50;100.00;98919.69;4979070;28;20137;-93
2024/04/03 02:52:58;;;;;;;1.08;0.50;;;;;;;8.38;100.00;98907.47;4978861;28;20050;-93
2024/04/03 02:55:24;;;;;;;3.38;0.90;;;;;;;8.36;100.00;98906.59;4966602;28;20043;-92
2024/04/03 02:57:50;;;;;;;3.35;0.98;;;;;;;8.24;100.00;98867.06;4974625;28;20133;-93
2024/04/03 03:00:16;;;;;;;2.05;1.17;;;;;;;8.43;100.00;98915.38;4978094;28;20133;-93
2024/04/03 03:02:42;;;;;;;2.38;0.90;;;;;;;8.45;100.00;98912.69;4978993;28;20066;-94
2024/04/03 03:05:09;;;;;;;2.05;1.02;;;;;;;8.42;100.00;98918.94;4978734;28;20050;-92
2024/04/03 03:07:36;;;;;;;2.00;0.93;;;;;;;7.62;100.00;98766.53;4978658;28;20038;-93
2024/04/03 03:10:02;;;;;;;3.70;1.45;;;;;;;8.12;100.00;98841.66;4977978;28;20054;-93
2024/04/03 03:12:29;;;;;;;1.63;0.88;;;;;;;8.54;100.00;98902.81;4978820;28;20046;-92
2024/04/03 03:14:55;;;;;;;1.63;1.00;;;;;;;8.52;100.00;98898.44;5000184;28;20030;-94
2024/04/03 03:17:21;;;;;;;2.80;1.13;;;;;;;8.51;100.00;98891.41;5002338;28;20034;-94
2024/04/03 03:19:47;;;;;;;1.92;0.90;;;;;;;7.85;100.00;98782.06;5001531;28;20053;-93
2024/04/03 03:22:13;;;;;;;3.60;1.15;;;;;;;8.17;100.00;98838.91;5002682;28;20061;-93
2024/04/03 03:24:40;;;;;;;6.72;1.10;;;;;;;8.50;100.00;98892.28;5003367;28;20046;-92
2024/04/03 03:27:06;;;;;;;1.60;0.80;;;;;;;8.50;100.00;98857.81;4991566;28;20050;-92
2024/04/03 03:29:32;;;;;;;1.60;1.08;;;;;;;8.36;100.00;98831.53;4978512;28;20053;-93
2024/04/03 03:31:58;;;;;;;2.20;1.10;;;;;;;8.32;100.00;98827.19;4977531;28;20050;-92
2024/04/03 03:34:24;;;;;;;2.20;0.70;;;;;;;8.46;100.00;98834.94;4978285;28;20731;-92
2024/04/03 03:36:50;;;;;;;3.28;0.95;;;;;;;8.68;100.00;98873.44;4978003;28;20034;-93
2024/04/03 03:39:16;;;;;;;2.05;1.10;;;;;;;8.11;100.00;98791.34;4978175;28;20556;-94
2024/04/03 03:41:43;;;;;;;2.33;0.90;;;;;;;8.42;100.00;98848.25;4978442;28;20042;-93
2024/04/03 03:44:09;;;;;;;4.43;1.30;;;;;;;8.42;100.00;98813.78;4978196;28;20062;-93
2024/04/03 03:46:35;;;;;;;3.72;1.15;;;;;;;8.41;100.00;98817.38;4978103;28;20521;-93
2024/04/03 03:52:42;;;;;;;1.38;0.80;;;;;;;8.63;100.00;98876.16;5144802;27;20389;-94
2024/04/03 03:54:45;;;;;;;3.25;1.00;;;;;;;8.57;100.00;98876.25;5114362;27;20042;-93
2024/04/03 03:57:11;;;;;;;4.18;1.25;;;;;;;8.29;100.00;98825.47;5120684;28;20126;-93
2024/04/03 03:59:37;;;;;;;2.13;1.60;;;;;;;8.03;100.00;98771.16;5119116;27;20066;-94
2024/04/03 04:02:03;;;;;;;1.67;0.73;;;;;;;8.70;100.00;98873.41;5124578;27;20050;-93
2024/04/03 04:04:29;;;;;;;2.83;1.02;;;;;;;8.77;100.00;98862.66;5120296;28;20112;-93
2024/04/03 04:06:55;;;;;;;2.53;1.05;;;;;;;8.74;100.00;98864.47;5127209;27;20053;-94
2024/04/03 04:09:23;;;;;;;5.93;0.98;;;;;;;8.71;100.00;98876.00;5133203;27;20043;-93
2024/04/03 04:11:49;;;;;;;4.35;1.23;;;;;;;8.74;100.00;98868.03;5122732;27;20043;-93
2024/04/03 04:14:15;;;;;;;2.20;1.10;;;;;;;8.72;100.00;98859.22;5121942;27;20046;-93
2024/04/03 04:16:41;;;;;;;2.13;0.90;;;;;;;8.50;100.00;98823.38;5119416;28;20428;-93
2024/04/03 04:19:07;;;;;;;1.25;0.88;;;;;;;8.78;100.00;98852.91;5126801;27;20035;-94
2024/04/03 04:21:33;;;;;;;5.20;1.38;;;;;;;8.31;100.00;98767.19;5120506;27;20043;-94
2024/04/03 04:23:59;;;;;;;2.33;1.45;;;;;;;8.54;100.00;98810.03;5124022;27;20055;-93
2024/04/03 04:26:29;;;;;;;1.83;1.05;;;;;;;8.82;100.00;98873.16;5124959;27;20367;-93
2024/04/03 04:28:54;;;;;;;;;;;;;;;8.83;100.00;98873.16;5126004;28;20037;-92
2024/04/03 04:31:20;;;;;;;2.80;0.98;;;;;;;8.61;100.00;98853.25;5126260;27;19919;-93
2024/04/03 04:33:46;;;;;;;1.95;1.00;;;;;;;8.84;100.00;98881.97;5121500;27;20066;-93
2024/04/03 04:36:12;;;;;;;2.45;1.25;;;;;;;8.92;100.00;98876.53;5139227;27;20093;-94
2024/04/03 04:38:38;;;;;;;2.75;1.23;;;;;;;8.98;100.00;98893.22;5143752;27;20027;-93
2024/04/03 04:41:05;;;;;;;3.85;1.23;;;;;;;8.97;100.00;98886.13;5149267;27;20023;-92
2024/04/03 04:43:32;;;;;;;5.00;1.83;;;;;;;8.76;100.00;98850.31;5149260;27;20039;-93
2024/04/03 04:45:59;;;;;;;1.80;1.02;;;;;;;9.05;100.00;98891.31;5139768;27;20043;-92
2024/04/03 04:48:28;;;;;;;2.80;1.23;;;;;;;9.11;100.00;98883.25;5143862;27;20119;-91
2024/04/03 04:50:58;;;;;;;3.05;1.50;;;;;;;9.05;100.00;98891.31;5150782;28;20065;-91
2024/04/03 04:53:24;;;;;;;1.80;1.13;;;;;;;8.93;100.00;98891.53;5135760;28;20047;-93
2024/04/03 04:55:54;;;;;;;1.55;1.10;;;;;;;8.26;100.00;98799.03;5131621;28;20050;-93
2024/04/03 04:58:21;;;;;;;3.25;1.45;;;;;;;8.94;100.00;98899.47;5116120;28;20048;-94
2024/04/03 05:00:49;;;;;;;2.15;0.90;;;;;;;8.98;100.00;98906.47;5132362;28;20181;-94
2024/04/03 05:03:15;;;;;;;2.78;1.10;;;;;;;8.62;100.00;98831.13;5119414;28;20043;-93
2024/04/03 05:05:41;;;;;;;2.63;1.05;;;;;;;8.30;100.00;98776.00;5114364;28;20040;-95
2024/04/03 05:08:07;;;;;;;3.53;0.70;;;;;;;8.81;100.00;98850.22;5098589;28;20036;-94
2024/04/03 05:10:34;;;;;;;1.08;0.73;;;;;;;9.10;100.00;98912.44;5117324;28;20059;-92
2024/04/03 05:13:00;;;;;;;1.73;1.02;;;;;;;9.14;100.00;98900.88;5118097;28;20048;-93
2024/04/03 05:15:28;;;;;;;4.10;1.70;;;;;;;9.13;100.00;98896.44;5119874;28;20050;-95
2024/04/03 05:17:56;;;;;;;9.10;4.45;;;;;;;9.17;100.00;98909.66;5106947;28;20127;-94
2024/04/03 05:20:22;;;;;;;5.07;2.30;;;;;;;9.14;100.00;98915.00;5105478;28;20033;-95
2024/04/03 05:22:48;;;;;;;4.60;1.55;;;;;;;9.22;100.00;98909.56;5102410;28;20047;-95
2024/04/03 05:25:14;;;;;;;3.83;1.63;;;;;;;9.24;100.00;98919.25;5096493;28;20048;-94
2024/04/03 05:27:40;;;;;;;2.22;1.45;;;;;;;9.25;100.00;98917.44;5115546;28;20406;-92
2024/04/03 05:30:07;;;;;;;9.68;2.47;;;;;;;9.39;100.00;98910.09;5106092;28;20035;-93
2024/04/03 05:32:33;;;;;;;8.73;3.35;;;;;;;9.45;100.00;98904.69;5100016;28;20104;-92
2024/04/03 05:35:00;;;;;;;5.07;1.75;;;;;;;9.03;100.00;98890.47;5109627;28;20040;-95
2024/04/03 05:37:27;;;;;;;5.22;1.55;;;;;;;9.24;100.00;98882.09;5108448;28;20494;-95
2024/04/03 05:39:53;;;;;;;6.53;2.28;;;;;;;9.20;100.00;98858.31;5103155;28;20048;-93
2024/04/03 05:42:19;;;;;;;5.18;2.28;;;;;;;9.48;100.00;98892.22;5107503;28;20040;-94
2024/04/03 05:44:45;;;;;;;10.43;2.85;;;;;;;8.75;100.00;98752.22;5097733;28;20040;-94
2024/04/03 05:47:11;;;;;;;6.25;1.98;;;;;;;8.81;100.00;98760.06;5101451;28;20086;-94
2024/04/03 05:49:37;;;;;;;4.63;1.42;;;;;;;9.65;100.00;98901.59;5105979;28;20031;-94
2024/04/03 05:52:05;;;;;;;3.53;1.63;;;;;;;8.92;100.00;98775.75;5083552;28;20044;-94
2024/04/03 05:54:31;;;;;;;1.77;1.20;;;;;;;9.74;100.00;98910.28;5100312;28;20036;-94
2024/04/03 05:56:57;;;;;;;5.10;1.75;;;;;;;9.91;100.00;98908.13;5093957;28;20040;-94
2024/04/03 05:59:23;;;;;;;3.97;1.73;;;;;;;9.96;100.00;98908.03;5097884;28;20042;-94
2024/04/03 06:01:49;;;;;;;2.35;1.80;;;;;;;9.85;100.00;98892.34;5091204;28;20044;-94
2024/04/03 06:04:17;;;;;;;4.88;1.88;;;;;;;9.83;100.00;98883.53;5092198;28;20040;-94
2024/04/03 06:06:43;;;;;;;3.53;1.27;;;;;;;10.14;100.00;98941.28;5084622;28;20040;-93
2024/04/03 06:09:11;;;;;;;2.92;1.60;;;;;;;9.54;100.00;98816.00;5085561;28;20040;-94
2024/04/03 06:11:37;;;;;;;4.05;1.30;;;;;;;10.30;100.00;98942.72;5092340;28;20092;-94
2024/04/03 06:14:04;;;;;;;6.03;1.33;;;;;;;10.37;100.00;98939.00;5084315;28;20134;-92
2024/04/03 06:16:30;;;;;;;2.80;1.60;;;;;;;10.16;100.00;98889.84;5099244;28;20051;-94
2024/04/03 06:19:00;;;;;;;4.60;1.70;;;;;;;10.55;100.00;98943.00;5089108;28;20040;-94
2024/04/03 06:21:26;;;;;;;4.88;2.03;;;;;;;10.65;100.00;98936.56;5093693;28;20097;-94
2024/04/03 06:23:52;;;;;;;7.18;2.13;;;;;;;10.64;100.00;98940.09;5089930;28;20043;-94
2024/04/03 06:26:20;;;;;;;5.40;1.83;;;;;;;10.74;100.00;98946.09;5092020;28;20047;-94
2024/04/03 06:28:46;;;;;;;5.70;1.73;;;;;;;9.97;97.58;98791.09;5095844;28;20036;-94
2024/04/03 06:31:12;;;;;;;8.35;2.10;;;;;;;10.37;100.00;98891.16;5078420;28;20051;-94
2024/04/03 06:33:38;;;;;;;6.90;1.80;;;;;;;10.22;98.89;98847.19;5096000;28;20040;-94
2024/04/03 06:36:06;;;;;;;3.47;1.77;;;;;;;10.55;98.94;98891.59;5103036;28;20039;-95
2024/04/03 06:38:32;;;;;;;10.90;1.73;;;;;;;10.74;100.00;98943.44;5103261;28;20044;-95
2024/04/03 06:40:58;;;;;;;4.63;1.60;;;;;;;10.83;100.00;98937.88;5100189;28;20047;-96
2024/04/03 06:43:26;;;;;;;4.95;1.90;;;;;;;10.28;99.85;98807.16;5100593;28;20039;-94
2024/04/03 06:45:55;;;;;;;3.05;1.73;;;;;;;10.37;99.28;98803.44;5085145;28;20044;-95
2024/04/03 06:48:22;;;;;;;3.90;1.58;;;;;;;11.34;97.76;98917.88;5084539;28;20094;-95
2024/04/03 06:50:51;;;;;;;5.88;1.77;;;;;;;11.18;95.85;98866.88;5089929;28;20070;-94
2024/04/03 06:53:16;;;;;;;6.25;1.80;;;;;;;11.06;92.13;98822.84;5099662;28;20130;-96
2024/04/03 06:55:53;;;;;;;1.98;1.23;;;;;;;11.82;90.18;98957.38;5116295;27;20463;-95
2024/04/03 06:58:19;;;;;;;7.13;1.83;;;;;;;11.67;89.58;98909.88;5115020;28;20040;-95
2024/04/03 07:00:46;;;;;;;4.03;1.73;;;;;;;11.74;89.51;98910.56;5104127;27;20050;-95
2024/04/03 07:03:13;;;;;;;4.07;1.65;;;;;;;11.63;88.28;98890.44;5102362;28;20040;-96
2024/04/03 07:05:39;;;;;;;6.40;1.73;;;;;;;12.08;85.64;98963.75;5099599;28;20043;-96
2024/04/03 07:08:06;;;;;;;3.80;1.85;;;;;;;12.14;85.63;98960.88;5099252;28;20073;-94
2024/04/03 07:10:32;;;;;;;4.82;2.00;;;;;;;12.32;84.88;98962.13;5101394;28;20031;-96
2024/04/03 07:13:02;;;;;;;4.78;2.33;;;;;;;12.04;83.46;98887.47;5117989;27;20047;-95
2024/04/03 07:15:29;;;;;;;3.80;1.70;;;;;;;12.62;83.30;98980.75;5107290;28;20039;-95
2024/04/03 07:17:57;;;;;;;6.57;2.60;;;;;;;11.99;83.56;98825.44;5101151;28;20055;-95
2024/04/03 07:20:25;;;;;;;23.70;9.85;;;;;;;12.06;81.70;98825.19;5103176;28;20039;-96
2024/04/03 07:22:53;;;;;;;12.25;6.05;;;;;;;12.92;81.87;98963.75;5111825;27;20055;-95
2024/04/03 07:25:19;;;;;;;7.82;3.22;;;;;;;12.66;79.60;98961.06;5142190;27;20023;-96
2024/04/03 07:27:46;;;;;;;6.00;3.05;;;;;;;11.98;76.65;98829.91;5141926;27;20031;-95
2024/04/03 07:30:13;;;;;;;6.40;2.80;;;;;;;12.91;77.62;98971.81;5131655;28;20031;-92
2024/04/03 07:32:40;;;;;;;5.20;1.60;;;;;;;12.30;78.19;98833.31;5121876;28;20043;-95
2024/04/03 07:35:11;;;;;;;6.07;2.20;;;;;;;13.20;75.99;98962.78;5132673;27;20046;-96
2024/04/03 07:37:39;;;;;;;6.68;1.88;;;;;;;13.38;76.17;98977.34;5125491;27;20048;-96
2024/04/03 07:40:08;;;;;;;7.95;2.08;;;;;;;13.01;76.59;98890.50;5120830;27;20043;-96
2024/04/03 07:42:36;;;;;;;6.97;2.92;;;;;;;12.76;75.62;98865.56;5120623;28;20047;-96
2024/04/03 07:45:04;;;;;;;6.95;2.60;;;;;;;13.29;77.16;98946.50;5119878;27;20516;-95
2024/04/03 07:47:30;;;;;;;9.02;2.33;;;;;;;12.89;77.46;98875.75;5117932;28;20043;-95
2024/04/03 07:49:57;;;;;;;7.03;2.70;;;;;;;13.52;77.68;98977.72;5098455;28;20052;-95
2024/04/03 07:52:24;;;;;;;6.40;1.85;;;;;;;13.45;76.19;98976.19;5098412;28;20055;-95
2024/04/03 07:54:50;;;;;;;6.63;1.80;;;;;;;13.56;76.91;98986.50;5109890;28;20054;-95
2024/04/03 07:57:16;;;;;;;5.30;1.90;;;;;;;13.60;76.39;98993.50;5120672;28;20039;-95
2024/04/03 07:59:43;;;;;;;3.90;2.35;;;;;;;13.01;74.64;98892.28;5109716;28;20043;-94
2024/04/03 08:02:09;;;;;;;6.35;2.63;;;;;;;13.78;75.17;98991.94;5103482;28;20041;-94
2024/04/03 08:04:36;;;;;;;3.35;1.95;;;;;;;13.85;74.60;98984.56;5104253;28;20063;-95
2024/04/03 08:07:02;;;;;;;7.50;2.00;;;;;;;13.61;74.13;98911.53;5105289;28;20872;-95
2024/04/03 08:09:32;;;;;;;5.57;2.05;;;;;;;13.84;73.02;98922.22;5112152;28;20570;-94
2024/04/03 08:11:59;;;;;;;4.43;2.53;;;;;;;14.24;71.35;98960.78;5112979;28;20039;-94
2024/04/03 08:14:25;;;;;;;8.35;2.30;;;;;;;14.50;70.93;98991.88;5117448;28;20051;-95
2024/04/03 08:16:52;;;;;;;8.20;2.22;;;;;;;14.66;69.58;99002.88;5114875;28;20134;-95
2024/04/03 08:19:18;;;;;;;4.95;2.33;;;;;;;14.75;69.75;99001.66;5114516;28;20040;-95
2024/04/03 08:21:46;;;;;;;4.18;1.92;;;;;;;14.81;69.17;98996.03;5117385;28;20505;-94
2024/04/03 08:24:12;;;;;;;4.75;2.25;;;;;;;14.62;69.56;98958.44;5107987;28;20094;-94
2024/04/03 08:26:40;;;;;;;4.78;2.30;;;;;;;14.53;69.97;99002.47;5107493;28;20036;-95
2024/04/03 08:29:08;;;;;;;5.60;1.92;;;;;;;14.55;70.25;99007.78;5097220;28;20071;-94
2024/04/03 08:31:35;;;;;;;7.55;2.25;;;;;;;14.00;69.63;98879.72;5098231;28;20040;-95
2024/04/03 08:34:01;;;;;;;6.10;2.20;;;;;;;14.58;69.94;98960.38;5111102;28;20043;-94
2024/04/03 08:36:27;;;;;;;8.00;2.13;;;;;;;14.12;70.37;98945.25;5117538;28;20040;-95
2024/04/03 08:38:55;;;;;;;5.55;1.60;;;;;;;13.47;72.78;98933.41;5121161;27;20376;-96
2024/04/03 08:41:21;;;;;;;5.88;2.10;;;;;;;14.34;71.66;99013.00;5113456;27;20043;-94
2024/04/03 08:43:51;;;;;;;7.10;1.45;;;;;;;13.83;72.72;98949.00;5121382;27;20051;-94
2024/04/03 08:46:18;;;;;;;4.10;1.55;;;;;;;14.54;71.61;99019.41;5108580;28;20088;-96
2024/04/03 08:48:46;;;;;;;6.43;2.13;;;;;;;14.20;72.12;98948.47;5114051;27;20482;-96
2024/04/03 08:51:14;;;;;;;5.65;1.38;;;;;;;14.70;72.10;99022.34;5102561;28;20047;-95
2024/04/03 08:53:42;;;;;;;4.97;1.70;;;;;;;14.65;72.29;99016.31;5100652;28;20039;-95
2024/04/03 08:56:09;;;;;;;4.35;1.70;;;;;;;14.86;72.75;99012.78;5115700;27;20046;-95
2024/04/03 08:58:35;;;;;;;4.40;1.48;;;;;;;14.60;71.85;98975.50;5103536;28;20051;-94
2024/04/03 09:01:05;;;;;;;3.97;1.27;;;;;;;14.51;72.56;98955.31;5100502;28;20048;-95
2024/04/03 09:03:31;;;;;;;8.27;1.60;;;;;;;14.77;73.65;99011.34;5118342;27;20043;-95
2024/04/03 09:05:57;;;;;;;4.03;1.70;;;;;;;14.69;74.39;99017.94;5104078;28;20402;-95
2024/04/03 09:08:23;;;;;;;4.07;1.58;;;;;;;14.83;74.14;98980.75;5100996;28;20466;-95
2024/04/03 09:10:53;;;;;;;5.50;1.63;;;;;;;15.01;74.32;98987.19;5109421;27;20112;-95
2024/04/03 09:13:19;;;;;;;2.65;1.35;;;;;;;15.44;73.02;99012.16;5104658;28;20040;-94
2024/04/03 09:15:45;;;;;;;6.75;1.33;;;;;;;15.55;73.16;99009.03;5104698;27;20088;-94
2024/04/03 09:18:14;;;;;;;5.47;1.58;;;;;;;15.47;73.64;99020.06;5110291;28;20044;-93
2024/04/03 09:20:41;;;;;;;6.80;1.55;;;;;;;15.50;73.93;99027.09;5100964;27;20065;-95
2024/04/03 09:23:09;;;;;;;4.72;1.50;;;;;;;15.64;72.95;99016.66;5110216;28;20051;-95
2024/04/03 09:25:36;;;;;;;8.52;1.67;;;;;;;15.44;72.98;98946.97;5099289;28;20040;-93
2024/04/03 09:28:03;;;;;;;5.75;1.45;;;;;;;15.85;74.55;99016.66;5113859;27;20201;-94
2024/04/03 09:30:30;;;;;;;4.18;1.70;;;;;;;16.36;71.55;98961.56;5105682;27;20402;-94
2024/04/03 09:33:00;;;;;;;6.53;1.63;;;;;;;16.86;70.45;99001.22;5105101;28;20131;-94
2024/04/03 09:35:29;;;;;;;6.13;1.70;;;;;;;16.87;69.54;98970.72;5101295;28;20062;-94
2024/04/03 09:37:55;;;;;;;6.63;1.80;;;;;;;17.26;68.00;98985.78;5113572;27;20137;-93
2024/04/03 09:40:24;;;;;;;3.83;1.50;;;;;;;16.79;69.70;98978.28;5106173;27;20096;-94
2024/04/03 09:42:57;;;;;;;6.85;1.70;;;;;;;16.78;69.18;98915.63;5111012;27;20067;-94
2024/04/03 09:45:26;;;;;;;4.50;1.52;;;;;;;17.05;69.79;98971.66;5108269;27;20120;-94
2024/04/03 09:47:56;;;;;;;;;;;;;;;16.56;72.59;98961.47;5107912;27;20040;-94
2024/04/03 09:50:22;;;;;;;3.35;1.88;;;;;;;16.97;71.09;98963.09;5117735;27;19919;-94
2024/04/03 09:52:51;;;;;;;3.25;1.75;;;;;;;16.41;73.47;98962.19;5110794;27;20044;-93
2024/04/03 09:55:20;;;;;;;3.95;1.40;;;;;;;16.04;72.19;98843.22;5151644;27;20039;-93
2024/04/03 09:57:46;;;;;;;9.50;1.73;;;;;;;16.69;72.74;98958.19;5125666;28;20053;-93
2024/04/03 10:00:13;;;;;;;6.70;1.35;;;;;;;16.58;72.66;98958.72;5126226;27;20023;-95
2024/04/03 10:02:47;;;;;;;6.32;1.27;;;;;;;16.69;72.98;98960.88;5137359;27;20043;-94
2024/04/03 10:05:13;;;;;;;6.03;1.30;;;;;;;16.75;72.38;98955.22;5126519;28;20063;-94
2024/04/03 10:07:40;;;;;;;6.18;1.85;;;;;;;16.94;71.73;98955.19;5122107;28;20024;-94
2024/04/03 10:10:18;;;;;;;8.25;1.65;;;;;;;17.58;70.11;98945.63;5112024;28;20039;-96
2024/04/03 10:12:45;;;;;;;6.07;1.33;;;;;;;17.82;69.12;98960.47;5103523;27;20137;-96
2024/04/03 10:15:21;;;;;;;6.03;1.50;;;;;;;17.51;68.24;98954.97;5117407;27;20043;-95
2024/04/03 10:17:48;;;;;;;3.35;1.33;;;;;;;17.29;69.00;98957.91;5108305;27;20092;-95
2024/04/03 10:20:28;;;;;;;5.40;1.67;;;;;;;17.33;68.97;98921.88;5109345;27;20042;-94
2024/04/03 10:22:55;;;;;;;4.40;1.15;;;;;;;17.42;70.08;98945.56;5109261;28;20048;-94
2024/04/03 10:25:22;;;;;;;5.03;1.25;;;;;;;17.76;68.68;98923.16;5110499;28;20039;-93
2024/04/03 10:27:48;;;;;;;7.07;1.45;;;;;;;17.58;67.11;98891.84;5100676;28;20048;-96
2024/04/03 10:30:18;;;;;;;4.95;1.63;;;;;;;17.54;66.04;98849.94;5098853;28;20525;-94
2024/04/03 10:32:45;;;;;;;5.68;1.02;;;;;;;17.81;66.20;98877.16;5100326;28;20040;-95
2024/04/03 10:35:11;;;;;;;3.90;1.20;;;;;;;17.83;66.58;98834.94;5110014;28;20047;-95
2024/04/03 10:37:37;;;;;;;4.75;2.17;;;;;;;18.26;66.81;98924.03;5105460;27;20039;-95
2024/04/03 10:40:03;;;;;;;5.05;1.50;;;;;;;17.29;68.46;98837.81;5118879;27;20039;-94
2024/04/03 10:42:34;;;;;;;3.65;1.23;;;;;;;17.36;67.51;98793.53;5131322;27;20466;-96
2024/04/03 10:45:01;;;;;;;7.75;1.30;;;;;;;18.12;61.54;98924.78;5106015;28;20112;-94
2024/04/03 10:47:27;;;;;;;5.13;1.45;;;;;;;18.39;61.21;98921.50;5105539;27;20035;-94
2024/04/03 10:49:54;;;;;;;7.18;1.13;;;;;;;18.49;62.45;98914.63;5098463;28;20056;-94
2024/04/03 10:52:20;;;;;;;3.03;1.10;;;;;;;18.54;60.87;98880.25;5078275;28;20407;-95
2024/04/03 10:54:47;;;;;;;6.05;1.75;;;;;;;18.66;61.28;98910.97;5082551;28;20040;-96
2024/04/03 10:57:13;;;;;;;2.75;0.90;;;;;;;18.41;62.45;98906.13;5086487;28;20054;-96
2024/04/03 10:59:51;;;;;;;3.20;1.30;;;;;;;17.44;63.85;98794.00;5107624;28;20138;-96
2024/04/03 11:02:33;;;;;;;4.45;1.02;;;;;;;17.69;61.48;98798.00;5114220;28;20044;-96
2024/04/03 11:04:59;;;;;;;2.42;0.77;;;;;;;18.36;59.52;98908.22;5088018;28;20112;-95
2024/04/03 11:07:31;;;;;;;3.70;0.90;;;;;;;18.50;59.97;98902.03;5095108;28;20034;-96
2024/04/03 11:10:11;;;;;;;3.72;0.98;;;;;;;18.43;59.33;98879.97;5093938;28;20121;-96
2024/04/03 11:12:40;;;;;;;2.10;0.90;;;;;;;18.63;58.00;98906.66;5114584;28;20127;-96
2024/04/03 11:15:22;;;;;;;3.33;1.70;;;;;;;17.99;60.08;98904.91;5110771;28;20019;-96
2024/04/03 11:17:48;;;;;;;7.45;1.25;;;;;;;18.33;61.28;98913.78;5100879;28;20073;-95
2024/04/03 11:20:14;;;;;;;1.52;0.77;;;;;;;18.23;60.74;98830.84;5106006;28;20486;-94
2024/04/03 11:22:40;;;;;;;3.28;0.95;;;;;;;17.97;60.88;98850.28;5110961;28;20049;-95
2024/04/03 11:25:12;;;;;;;4.82;0.88;;;;;;;18.60;60.66;98901.41;5107599;28;20019;-95
2024/04/03 11:27:39;;;;;;;2.70;0.80;;;;;;;18.41;59.43;98903.44;5104061;28;20040;-96
2024/04/03 11:30:07;;;;;;;2.45;1.00;;;;;;;18.41;58.54;98839.69;5100379;28;20100;-95
2024/04/03 11:32:37;;;;;;;6.10;1.13;;;;;;;18.76;58.23;98904.09;5103968;28;20024;-96
2024/04/03 11:35:07;;;;;;;2.00;0.80;;;;;;;18.93;57.29;98892.34;5107892;28;20134;-94
2024/04/03 11:37:38;;;;;;;3.80;0.75;;;;;;;18.94;56.11;98877.94;5103565;28;20043;-95